메인 페이지
METAR-TAF:

METAR-TAF

공항 :

스탠리, 포클랜드 제도

위도: 51-49S, 경도: 058-27W, 고도: 74m

현재 날씨관측

예보는 37분 전, 18:50시(UTC)에 발표되었습니다.
남남서21kt
온도 3°C
습도 93%
기압 994 hPa
시정 10km 이상
고도 1100ft 상공 구름 보통
고도 5000ft 상공 흐림

METAR: EGYP 201850Z 21021KT 9999 SCT011 OVC050 03/02 Q0994 GRN TEMPO 2000 -SHRASN YLO2

시각: 16:27 (19:27 UTC)

예보

예보는 2 시간 51분 전, 16:36시(UTC)에 발표되었습니다.
예보 대상 시간: 20일 18시부터 21일 12시까지 (UTC)
남남서23kt, 순간 최대 풍속 33kt
시정 10km 이상
고도 1200ft 상공 구름 많음
확률 40% :
일시적
20일 18시부터 21일 03시까지 (UTC)
시정: 0700m
고도 200ft 상공 구름 많음
소낙눈
일시적
21일 03시부터 21일 12시까지 (UTC)
남남서28kt, 순간 최대 풍속 43kt
시정: 0500m
고도 100ft 상공 구름 많음
소낙눈

TAF: EGYP 201636Z 2018/2112 21023G33KT 9999 BKN012 PROB40 TEMPO 2018/2103 0700 SHSN BKN002 TEMPO 2103/2112 21028G43KT 0500 SHSN BKN001

4,000개 이상의 공항 관측 자료 및 예보 (METAR 및 TAF 보고).

지도상에서 검색 가능한 기상관측소가 노란 점과 빨간 점으로 표시되어 있습니다.

기상관측소 명을 보려면 표시 위로 마우스를 이동하세요.

날씨 관측과 예보를 보려면 클릭하세요.

지도 변경 : 확대하려면 엑스 표시가 있는 녹색 버튼, 축소하려면 빼기 표시가 있는 녹색 버튼, 다음 페이지의 지도를 보려면 녹색 화살표를 클릭하세요.


METAR-TAF: